sensor_id;sensor_type;location;lat;lon;timestamp;temperature;humidity
73939;DHT22;62291;47.554;8.504;2023-06-22T00:00:53;20.60;99.90
73939;DHT22;62291;47.554;8.504;2023-06-22T00:03:20;20.60;99.90
73939;DHT22;62291;47.554;8.504;2023-06-22T00:05:47;20.60;99.90
73939;DHT22;62291;47.554;8.504;2023-06-22T00:08:14;20.70;99.90
73939;DHT22;62291;47.554;8.504;2023-06-22T00:10:40;20.60;99.90
73939;DHT22;62291;47.554;8.504;2023-06-22T00:13:07;20.60;99.90
73939;DHT22;62291;47.554;8.504;2023-06-22T00:15:33;20.50;99.90
73939;DHT22;62291;47.554;8.504;2023-06-22T00:17:59;20.50;99.90
73939;DHT22;62291;47.554;8.504;2023-06-22T00:20:26;20.50;99.90
73939;DHT22;62291;47.554;8.504;2023-06-22T00:22:56;20.40;99.90
73939;DHT22;62291;47.554;8.504;2023-06-22T00:25:23;20.40;99.90
73939;DHT22;62291;47.554;8.504;2023-06-22T00:27:49;20.40;99.90
73939;DHT22;62291;47.554;8.504;2023-06-22T00:30:18;20.40;99.90
73939;DHT22;62291;47.554;8.504;2023-06-22T00:32:45;20.40;99.90
73939;DHT22;62291;47.554;8.504;2023-06-22T00:35:13;20.40;99.90
73939;DHT22;62291;47.554;8.504;2023-06-22T00:37:39;20.30;99.90
73939;DHT22;62291;47.554;8.504;2023-06-22T00:40:09;20.20;99.90
73939;DHT22;62291;47.554;8.504;2023-06-22T00:42:40;20.20;99.90
73939;DHT22;62291;47.554;8.504;2023-06-22T00:45:06;20.00;99.90
73939;DHT22;62291;47.554;8.504;2023-06-22T00:47:34;19.90;99.90
73939;DHT22;62291;47.554;8.504;2023-06-22T00:50:00;20.00;99.90
73939;DHT22;62291;47.554;8.504;2023-06-22T00:52:26;20.00;99.90
73939;DHT22;62291;47.554;8.504;2023-06-22T00:54:56;19.90;99.90
73939;DHT22;62291;47.554;8.504;2023-06-22T00:57:23;19.90;99.90
73939;DHT22;62291;47.554;8.504;2023-06-22T00:59:51;19.70;99.90
73939;DHT22;62291;47.554;8.504;2023-06-22T01:02:17;19.50;99.90
73939;DHT22;62291;47.554;8.504;2023-06-22T01:04:42;19.50;99.90
73939;DHT22;62291;47.554;8.504;2023-06-22T01:07:30;19.40;99.90
73939;DHT22;62291;47.554;8.504;2023-06-22T01:10:10;19.30;99.90
73939;DHT22;62291;47.554;8.504;2023-06-22T01:12:42;19.20;99.90
73939;DHT22;62291;47.554;8.504;2023-06-22T01:15:13;19.10;99.90
73939;DHT22;62291;47.554;8.504;2023-06-22T01:17:41;19.10;99.90
73939;DHT22;62291;47.554;8.504;2023-06-22T01:20:09;19.10;99.90
73939;DHT22;62291;47.554;8.504;2023-06-22T01:23:11;19.10;99.90
73939;DHT22;62291;47.554;8.504;2023-06-22T01:28:48;19.10;99.90
73939;DHT22;62291;47.554;8.504;2023-06-22T01:31:18;19.00;99.90
73939;DHT22;62291;47.554;8.504;2023-06-22T01:33:47;19.00;99.90
73939;DHT22;62291;47.554;8.504;2023-06-22T01:36:14;19.00;99.90
73939;DHT22;62291;47.554;8.504;2023-06-22T01:38:41;19.00;99.90
73939;DHT22;62291;47.554;8.504;2023-06-22T01:41:07;19.00;99.90
73939;DHT22;62291;47.554;8.504;2023-06-22T01:43:34;18.90;99.90
73939;DHT22;62291;47.554;8.504;2023-06-22T01:46:01;18.90;99.90
73939;DHT22;62291;47.554;8.504;2023-06-22T01:48:27;18.90;99.90
73939;DHT22;62291;47.554;8.504;2023-06-22T01:50:55;18.90;99.90
73939;DHT22;62291;47.554;8.504;2023-06-22T01:53:24;18.90;99.90
73939;DHT22;62291;47.554;8.504;2023-06-22T01:55:50;18.80;99.90
73939;DHT22;62291;47.554;8.504;2023-06-22T01:58:16;18.80;99.90
73939;DHT22;62291;47.554;8.504;2023-06-22T02:00:50;18.80;99.90
73939;DHT22;62291;47.554;8.504;2023-06-22T02:03:21;18.70;99.90
73939;DHT22;62291;47.554;8.504;2023-06-22T02:05:51;18.80;99.90
73939;DHT22;62291;47.554;8.504;2023-06-22T02:08:35;18.70;99.90
73939;DHT22;62291;47.554;8.504;2023-06-22T02:11:03;18.70;99.90
73939;DHT22;62291;47.554;8.504;2023-06-22T02:13:29;18.60;99.90
73939;DHT22;62291;47.554;8.504;2023-06-22T02:15:56;18.50;99.90
73939;DHT22;62291;47.554;8.504;2023-06-22T02:18:22;18.50;99.90
73939;DHT22;62291;47.554;8.504;2023-06-22T02:20:48;18.40;99.90
73939;DHT22;62291;47.554;8.504;2023-06-22T02:23:13;18.40;99.90
73939;DHT22;62291;47.554;8.504;2023-06-22T02:25:39;18.30;99.90
73939;DHT22;62291;47.554;8.504;2023-06-22T02:28:05;18.30;99.90
73939;DHT22;62291;47.554;8.504;2023-06-22T02:30:31;18.20;99.90
73939;DHT22;62291;47.554;8.504;2023-06-22T02:32:57;18.20;99.90
73939;DHT22;62291;47.554;8.504;2023-06-22T02:35:26;18.10;99.90
73939;DHT22;62291;47.554;8.504;2023-06-22T02:37:52;18.20;99.90
73939;DHT22;62291;47.554;8.504;2023-06-22T02:40:18;18.20;99.90
73939;DHT22;62291;47.554;8.504;2023-06-22T02:42:44;18.10;99.90
73939;DHT22;62291;47.554;8.504;2023-06-22T02:45:09;18.10;99.90
73939;DHT22;62291;47.554;8.504;2023-06-22T02:47:35;18.10;99.90
73939;DHT22;62291;47.554;8.504;2023-06-22T02:50:01;18.00;99.90
73939;DHT22;62291;47.554;8.504;2023-06-22T02:52:27;18.00;99.90
73939;DHT22;62291;47.554;8.504;2023-06-22T02:54:52;18.00;99.90
73939;DHT22;62291;47.554;8.504;2023-06-22T02:57:18;18.00;99.90
73939;DHT22;62291;47.554;8.504;2023-06-22T02:59:43;18.10;99.90
73939;DHT22;62291;47.554;8.504;2023-06-22T03:02:09;18.10;99.90
73939;DHT22;62291;47.554;8.504;2023-06-22T03:04:36;18.20;99.90
73939;DHT22;62291;47.554;8.504;2023-06-22T03:07:02;18.10;99.90
73939;DHT22;62291;47.554;8.504;2023-06-22T03:09:28;18.00;99.90
73939;DHT22;62291;47.554;8.504;2023-06-22T03:11:54;18.10;99.90
73939;DHT22;62291;47.554;8.504;2023-06-22T03:14:20;18.00;99.90
73939;DHT22;62291;47.554;8.504;2023-06-22T03:16:46;18.00;99.90
73939;DHT22;62291;47.554;8.504;2023-06-22T03:19:12;18.10;99.90
73939;DHT22;62291;47.554;8.504;2023-06-22T03:21:38;18.00;99.90
73939;DHT22;62291;47.554;8.504;2023-06-22T03:24:05;18.00;99.90
73939;DHT22;62291;47.554;8.504;2023-06-22T03:26:30;18.00;99.90
73939;DHT22;62291;47.554;8.504;2023-06-22T03:28:56;17.90;99.90
73939;DHT22;62291;47.554;8.504;2023-06-22T03:31:22;18.00;99.90
73939;DHT22;62291;47.554;8.504;2023-06-22T03:33:48;18.00;99.90
73939;DHT22;62291;47.554;8.504;2023-06-22T03:36:15;18.00;99.90
73939;DHT22;62291;47.554;8.504;2023-06-22T03:38:45;17.90;99.90
73939;DHT22;62291;47.554;8.504;2023-06-22T03:41:11;17.90;99.90
73939;DHT22;62291;47.554;8.504;2023-06-22T03:43:37;17.90;99.90
73939;DHT22;62291;47.554;8.504;2023-06-22T03:46:03;17.90;99.90
73939;DHT22;62291;47.554;8.504;2023-06-22T03:48:28;18.00;99.90
73939;DHT22;62291;47.554;8.504;2023-06-22T03:50:54;18.00;99.90
73939;DHT22;62291;47.554;8.504;2023-06-22T03:53:20;18.00;99.90
73939;DHT22;62291;47.554;8.504;2023-06-22T03:55:50;18.10;99.90
73939;DHT22;62291;47.554;8.504;2023-06-22T03:58:16;18.20;99.90
73939;DHT22;62291;47.554;8.504;2023-06-22T04:00:45;18.30;99.90
73939;DHT22;62291;47.554;8.504;2023-06-22T04:03:11;18.30;99.90
73939;DHT22;62291;47.554;8.504;2023-06-22T04:05:38;18.40;99.90
73939;DHT22;62291;47.554;8.504;2023-06-22T04:08:05;18.40;99.90
73939;DHT22;62291;47.554;8.504;2023-06-22T04:10:30;18.40;99.90
73939;DHT22;62291;47.554;8.504;2023-06-22T04:12:56;18.60;99.90
73939;DHT22;62291;47.554;8.504;2023-06-22T04:15:22;18.80;99.90
73939;DHT22;62291;47.554;8.504;2023-06-22T04:17:47;18.90;99.90
73939;DHT22;62291;47.554;8.504;2023-06-22T04:20:13;19.00;99.90
73939;DHT22;62291;47.554;8.504;2023-06-22T04:22:39;19.00;99.90
73939;DHT22;62291;47.554;8.504;2023-06-22T04:25:06;19.20;99.90
73939;DHT22;62291;47.554;8.504;2023-06-22T04:27:33;19.30;99.90
73939;DHT22;62291;47.554;8.504;2023-06-22T04:30:03;19.40;99.90
73939;DHT22;62291;47.554;8.504;2023-06-22T04:32:29;19.50;99.90
73939;DHT22;62291;47.554;8.504;2023-06-22T04:34:54;19.60;99.90
73939;DHT22;62291;47.554;8.504;2023-06-22T04:37:20;20.00;99.90
73939;DHT22;62291;47.554;8.504;2023-06-22T04:39:49;20.30;99.90
73939;DHT22;62291;47.554;8.504;2023-06-22T04:42:15;20.60;99.90
73939;DHT22;62291;47.554;8.504;2023-06-22T04:44:41;20.80;99.90
73939;DHT22;62291;47.554;8.504;2023-06-22T04:47:08;21.10;99.90
73939;DHT22;62291;47.554;8.504;2023-06-22T04:49:35;21.30;99.90
73939;DHT22;62291;47.554;8.504;2023-06-22T04:52:04;21.50;99.90
73939;DHT22;62291;47.554;8.504;2023-06-22T04:54:30;21.70;99.90
73939;DHT22;62291;47.554;8.504;2023-06-22T04:57:07;22.00;99.90
73939;DHT22;62291;47.554;8.504;2023-06-22T04:59:37;22.10;99.90
73939;DHT22;62291;47.554;8.504;2023-06-22T05:02:04;22.40;99.90
73939;DHT22;62291;47.554;8.504;2023-06-22T05:04:31;22.70;99.90
73939;DHT22;62291;47.554;8.504;2023-06-22T05:06:58;22.90;99.90
73939;DHT22;62291;47.554;8.504;2023-06-22T05:09:25;23.60;99.90
73939;DHT22;62291;47.554;8.504;2023-06-22T05:11:51;24.20;99.90
73939;DHT22;62291;47.554;8.504;2023-06-22T05:14:17;24.50;99.90
73939;DHT22;62291;47.554;8.504;2023-06-22T05:16:44;24.90;99.90
73939;DHT22;62291;47.554;8.504;2023-06-22T05:19:10;25.40;99.90
73939;DHT22;62291;47.554;8.504;2023-06-22T05:21:36;25.40;99.90
73939;DHT22;62291;47.554;8.504;2023-06-22T05:24:02;25.20;99.90
73939;DHT22;62291;47.554;8.504;2023-06-22T05:26:32;25.10;99.90
73939;DHT22;62291;47.554;8.504;2023-06-22T05:29:00;25.00;99.90
73939;DHT22;62291;47.554;8.504;2023-06-22T05:31:27;24.90;99.90
73939;DHT22;62291;47.554;8.504;2023-06-22T05:33:54;25.30;99.90
73939;DHT22;62291;47.554;8.504;2023-06-22T05:36:20;25.50;99.90
73939;DHT22;62291;47.554;8.504;2023-06-22T05:38:47;25.80;99.90
73939;DHT22;62291;47.554;8.504;2023-06-22T05:41:13;26.20;99.90
73939;DHT22;62291;47.554;8.504;2023-06-22T05:43:39;26.20;99.90
73939;DHT22;62291;47.554;8.504;2023-06-22T05:46:05;26.30;99.90
73939;DHT22;62291;47.554;8.504;2023-06-22T05:48:31;26.50;99.90
73939;DHT22;62291;47.554;8.504;2023-06-22T05:50:56;26.40;99.90
73939;DHT22;62291;47.554;8.504;2023-06-22T05:53:23;26.20;99.90
73939;DHT22;62291;47.554;8.504;2023-06-22T05:55:48;26.10;99.90
73939;DHT22;62291;47.554;8.504;2023-06-22T05:58:14;26.00;99.90
73939;DHT22;62291;47.554;8.504;2023-06-22T06:00:41;26.10;99.90
73939;DHT22;62291;47.554;8.504;2023-06-22T06:03:07;26.30;99.90
73939;DHT22;62291;47.554;8.504;2023-06-22T06:05:34;26.50;99.90
73939;DHT22;62291;47.554;8.504;2023-06-22T06:08:01;26.70;99.90
73939;DHT22;62291;47.554;8.504;2023-06-22T06:10:27;26.50;99.90
73939;DHT22;62291;47.554;8.504;2023-06-22T06:12:55;26.40;99.90
73939;DHT22;62291;47.554;8.504;2023-06-22T06:15:21;26.90;99.90
73939;DHT22;62291;47.554;8.504;2023-06-22T06:17:48;27.50;99.90
73939;DHT22;62291;47.554;8.504;2023-06-22T06:20:15;27.80;99.90
73939;DHT22;62291;47.554;8.504;2023-06-22T06:22:41;27.60;99.90
73939;DHT22;62291;47.554;8.504;2023-06-22T06:25:08;27.30;99.90
73939;DHT22;62291;47.554;8.504;2023-06-22T06:27:34;27.40;99.90
73939;DHT22;62291;47.554;8.504;2023-06-22T06:29:59;27.70;99.90
73939;DHT22;62291;47.554;8.504;2023-06-22T06:32:25;27.80;99.90
73939;DHT22;62291;47.554;8.504;2023-06-22T06:34:51;27.60;99.90
73939;DHT22;62291;47.554;8.504;2023-06-22T06:37:17;27.30;99.90
73939;DHT22;62291;47.554;8.504;2023-06-22T06:39:44;27.00;99.90
73939;DHT22;62291;47.554;8.504;2023-06-22T06:42:10;27.00;99.90
73939;DHT22;62291;47.554;8.504;2023-06-22T06:44:36;27.20;99.90
73939;DHT22;62291;47.554;8.504;2023-06-22T06:47:04;27.70;99.90
73939;DHT22;62291;47.554;8.504;2023-06-22T06:49:30;27.70;99.90
73939;DHT22;62291;47.554;8.504;2023-06-22T06:51:55;28.20;99.90
73939;DHT22;62291;47.554;8.504;2023-06-22T06:54:21;28.70;99.90
73939;DHT22;62291;47.554;8.504;2023-06-22T06:56:47;29.50;99.90
73939;DHT22;62291;47.554;8.504;2023-06-22T06:59:14;29.60;99.90
73939;DHT22;62291;47.554;8.504;2023-06-22T07:01:41;29.60;99.90
73939;DHT22;62291;47.554;8.504;2023-06-22T07:04:07;29.50;99.90
73939;DHT22;62291;47.554;8.504;2023-06-22T07:06:32;29.40;99.90
73939;DHT22;62291;47.554;8.504;2023-06-22T07:08:59;29.80;99.90
73939;DHT22;62291;47.554;8.504;2023-06-22T07:11:25;30.10;99.50
73939;DHT22;62291;47.554;8.504;2023-06-22T07:13:51;30.40;99.90
73939;DHT22;62291;47.554;8.504;2023-06-22T07:16:16;31.10;97.70
73939;DHT22;62291;47.554;8.504;2023-06-22T07:18:42;30.80;98.30
73939;DHT22;62291;47.554;8.504;2023-06-22T07:21:08;30.70;97.80
73939;DHT22;62291;47.554;8.504;2023-06-22T07:23:33;30.90;96.90
73939;DHT22;62291;47.554;8.504;2023-06-22T07:25:59;30.10;98.10
73939;DHT22;62291;47.554;8.504;2023-06-22T07:28:28;29.20;99.50
73939;DHT22;62291;47.554;8.504;2023-06-22T07:30:56;28.10;99.90
73939;DHT22;62291;47.554;8.504;2023-06-22T07:33:22;27.40;99.90
73939;DHT22;62291;47.554;8.504;2023-06-22T07:35:48;27.00;99.90
73939;DHT22;62291;47.554;8.504;2023-06-22T07:38:16;26.60;99.90
73939;DHT22;62291;47.554;8.504;2023-06-22T07:40:41;26.10;99.90
73939;DHT22;62291;47.554;8.504;2023-06-22T07:43:07;26.00;99.90
73939;DHT22;62291;47.554;8.504;2023-06-22T07:45:33;26.10;99.90
73939;DHT22;62291;47.554;8.504;2023-06-22T07:48:00;26.10;99.90
73939;DHT22;62291;47.554;8.504;2023-06-22T07:50:26;26.40;99.90
73939;DHT22;62291;47.554;8.504;2023-06-22T07:52:52;26.30;99.90
73939;DHT22;62291;47.554;8.504;2023-06-22T07:55:18;26.20;99.90
73939;DHT22;62291;47.554;8.504;2023-06-22T07:57:44;26.10;99.90
73939;DHT22;62291;47.554;8.504;2023-06-22T08:00:10;26.50;99.90
73939;DHT22;62291;47.554;8.504;2023-06-22T08:02:41;27.60;99.90
73939;DHT22;62291;47.554;8.504;2023-06-22T08:05:10;27.80;99.90
73939;DHT22;62291;47.554;8.504;2023-06-22T08:07:37;28.40;99.90
73939;DHT22;62291;47.554;8.504;2023-06-22T08:10:09;29.10;99.90
73939;DHT22;62291;47.554;8.504;2023-06-22T08:12:35;30.40;99.90
73939;DHT22;62291;47.554;8.504;2023-06-22T08:15:01;30.90;98.50
73939;DHT22;62291;47.554;8.504;2023-06-22T08:17:26;30.90;99.50
73939;DHT22;62291;47.554;8.504;2023-06-22T08:19:52;30.60;98.20
73939;DHT22;62291;47.554;8.504;2023-06-22T08:22:18;29.90;98.40
73939;DHT22;62291;47.554;8.504;2023-06-22T08:24:44;28.90;99.80
73939;DHT22;62291;47.554;8.504;2023-06-22T08:27:10;28.90;99.90
73939;DHT22;62291;47.554;8.504;2023-06-22T08:29:40;28.70;99.90
73939;DHT22;62291;47.554;8.504;2023-06-22T08:32:09;28.80;99.90
73939;DHT22;62291;47.554;8.504;2023-06-22T08:34:35;29.20;99.90
73939;DHT22;62291;47.554;8.504;2023-06-22T08:37:01;29.70;99.90
73939;DHT22;62291;47.554;8.504;2023-06-22T08:39:26;30.10;99.30
73939;DHT22;62291;47.554;8.504;2023-06-22T08:41:53;31.00;98.50
73939;DHT22;62291;47.554;8.504;2023-06-22T08:44:19;31.90;96.60
73939;DHT22;62291;47.554;8.504;2023-06-22T08:46:45;32.30;96.50
73939;DHT22;62291;47.554;8.504;2023-06-22T08:49:10;33.00;95.90
73939;DHT22;62291;47.554;8.504;2023-06-22T08:51:36;33.80;94.40
73939;DHT22;62291;47.554;8.504;2023-06-22T08:54:02;33.90;92.20
73939;DHT22;62291;47.554;8.504;2023-06-22T08:56:28;34.00;92.70
73939;DHT22;62291;47.554;8.504;2023-06-22T08:58:53;33.90;91.30
73939;DHT22;62291;47.554;8.504;2023-06-22T09:01:19;33.90;92.10
73939;DHT22;62291;47.554;8.504;2023-06-22T09:03:45;34.00;92.40
73939;DHT22;62291;47.554;8.504;2023-06-22T09:06:20;33.80;91.00
73939;DHT22;62291;47.554;8.504;2023-06-22T09:08:46;33.70;90.30
73939;DHT22;62291;47.554;8.504;2023-06-22T09:11:12;34.10;91.10
73939;DHT22;62291;47.554;8.504;2023-06-22T09:13:38;34.00;90.20
73939;DHT22;62291;47.554;8.504;2023-06-22T09:16:04;33.50;90.90
73939;DHT22;62291;47.554;8.504;2023-06-22T09:18:29;33.10;90.90
73939;DHT22;62291;47.554;8.504;2023-06-22T09:20:56;33.10;91.90
73939;DHT22;62291;47.554;8.504;2023-06-22T09:23:21;32.80;91.90
73939;DHT22;62291;47.554;8.504;2023-06-22T09:25:47;32.70;92.20
73939;DHT22;62291;47.554;8.504;2023-06-22T09:28:14;32.70;93.30
73939;DHT22;62291;47.554;8.504;2023-06-22T09:30:40;32.50;92.10
73939;DHT22;62291;47.554;8.504;2023-06-22T09:33:05;32.20;92.20
73939;DHT22;62291;47.554;8.504;2023-06-22T09:35:31;32.10;93.90
73939;DHT22;62291;47.554;8.504;2023-06-22T09:37:56;32.50;93.00
73939;DHT22;62291;47.554;8.504;2023-06-22T09:40:22;32.80;91.50
73939;DHT22;62291;47.554;8.504;2023-06-22T09:42:48;33.00;91.30
73939;DHT22;62291;47.554;8.504;2023-06-22T09:45:13;33.10;91.90
73939;DHT22;62291;47.554;8.504;2023-06-22T09:47:39;33.20;90.20
73939;DHT22;62291;47.554;8.504;2023-06-22T09:50:05;33.00;90.90
73939;DHT22;62291;47.554;8.504;2023-06-22T09:52:31;33.10;91.50
73939;DHT22;62291;47.554;8.504;2023-06-22T09:54:57;33.40;91.60
73939;DHT22;62291;47.554;8.504;2023-06-22T09:57:23;33.50;90.80
73939;DHT22;62291;47.554;8.504;2023-06-22T09:59:48;33.10;90.00
73939;DHT22;62291;47.554;8.504;2023-06-22T10:02:14;32.80;90.60
73939;DHT22;62291;47.554;8.504;2023-06-22T10:04:39;33.00;90.90
73939;DHT22;62291;47.554;8.504;2023-06-22T10:07:05;33.40;90.20
73939;DHT22;62291;47.554;8.504;2023-06-22T10:09:31;33.80;89.50
73939;DHT22;62291;47.554;8.504;2023-06-22T10:11:57;33.50;87.10
73939;DHT22;62291;47.554;8.504;2023-06-22T10:14:23;33.40;88.30
73939;DHT22;62291;47.554;8.504;2023-06-22T10:16:51;33.40;89.30
73939;DHT22;62291;47.554;8.504;2023-06-22T10:19:17;33.20;88.50
73939;DHT22;62291;47.554;8.504;2023-06-22T10:21:43;33.00;87.80
73939;DHT22;62291;47.554;8.504;2023-06-22T10:24:08;32.60;89.50
73939;DHT22;62291;47.554;8.504;2023-06-22T10:26:35;32.60;89.20
73939;DHT22;62291;47.554;8.504;2023-06-22T10:29:02;32.50;89.50
73939;DHT22;62291;47.554;8.504;2023-06-22T10:31:28;32.50;90.00
73939;DHT22;62291;47.554;8.504;2023-06-22T10:33:55;32.50;90.00
73939;DHT22;62291;47.554;8.504;2023-06-22T10:36:23;32.10;89.70
73939;DHT22;62291;47.554;8.504;2023-06-22T10:38:49;32.20;90.10
73939;DHT22;62291;47.554;8.504;2023-06-22T10:41:15;32.30;87.80
73939;DHT22;62291;47.554;8.504;2023-06-22T10:43:42;32.40;87.90
73939;DHT22;62291;47.554;8.504;2023-06-22T10:46:08;32.40;88.20
73939;DHT22;62291;47.554;8.504;2023-06-22T10:48:33;32.40;86.80
73939;DHT22;62291;47.554;8.504;2023-06-22T10:50:59;32.30;90.10
73939;DHT22;62291;47.554;8.504;2023-06-22T10:53:25;32.50;90.20
73939;DHT22;62291;47.554;8.504;2023-06-22T10:55:50;32.50;90.20
73939;DHT22;62291;47.554;8.504;2023-06-22T10:58:20;32.50;91.00
73939;DHT22;62291;47.554;8.504;2023-06-22T11:00:46;32.50;91.50
73939;DHT22;62291;47.554;8.504;2023-06-22T11:03:12;32.60;91.00
73939;DHT22;62291;47.554;8.504;2023-06-22T11:05:39;32.80;90.00
73939;DHT22;62291;47.554;8.504;2023-06-22T11:08:05;33.10;88.40
73939;DHT22;62291;47.554;8.504;2023-06-22T11:10:31;33.20;86.60
73939;DHT22;62291;47.554;8.504;2023-06-22T11:12:56;32.90;90.90
73939;DHT22;62291;47.554;8.504;2023-06-22T11:15:24;32.40;90.00
73939;DHT22;62291;47.554;8.504;2023-06-22T11:17:49;32.10;91.80
73939;DHT22;62291;47.554;8.504;2023-06-22T11:20:15;32.00;91.80
73939;DHT22;62291;47.554;8.504;2023-06-22T11:22:41;31.60;92.10
73939;DHT22;62291;47.554;8.504;2023-06-22T11:25:08;31.40;92.80
73939;DHT22;62291;47.554;8.504;2023-06-22T11:27:34;31.30;92.70
73939;DHT22;62291;47.554;8.504;2023-06-22T11:29:59;31.20;93.10
73939;DHT22;62291;47.554;8.504;2023-06-22T11:32:25;31.00;92.60
73939;DHT22;62291;47.554;8.504;2023-06-22T11:34:51;30.80;93.50
73939;DHT22;62291;47.554;8.504;2023-06-22T11:37:16;30.90;93.80
73939;DHT22;62291;47.554;8.504;2023-06-22T11:39:42;31.00;94.20
73939;DHT22;62291;47.554;8.504;2023-06-22T11:42:09;30.90;93.70
73939;DHT22;62291;47.554;8.504;2023-06-22T11:44:35;30.60;94.40
73939;DHT22;62291;47.554;8.504;2023-06-22T11:47:00;30.50;94.50
73939;DHT22;62291;47.554;8.504;2023-06-22T11:49:29;30.40;95.80
73939;DHT22;62291;47.554;8.504;2023-06-22T11:51:55;30.30;96.00
73939;DHT22;62291;47.554;8.504;2023-06-22T11:54:20;30.20;96.50
73939;DHT22;62291;47.554;8.504;2023-06-22T11:56:46;30.10;96.60
73939;DHT22;62291;47.554;8.504;2023-06-22T11:59:12;30.10;97.50
73939;DHT22;62291;47.554;8.504;2023-06-22T12:01:37;30.00;97.00
73939;DHT22;62291;47.554;8.504;2023-06-22T12:04:03;29.90;96.70
73939;DHT22;62291;47.554;8.504;2023-06-22T12:06:32;29.90;97.30
73939;DHT22;62291;47.554;8.504;2023-06-22T12:08:58;29.80;97.10
73939;DHT22;62291;47.554;8.504;2023-06-22T12:11:23;29.70;97.80
73939;DHT22;62291;47.554;8.504;2023-06-22T12:13:49;29.60;97.70
73939;DHT22;62291;47.554;8.504;2023-06-22T12:16:15;29.50;98.20
73939;DHT22;62291;47.554;8.504;2023-06-22T12:18:40;29.60;98.60
73939;DHT22;62291;47.554;8.504;2023-06-22T12:21:06;29.60;99.00
73939;DHT22;62291;47.554;8.504;2023-06-22T12:23:32;29.60;97.90
73939;DHT22;62291;47.554;8.504;2023-06-22T12:25:58;29.30;98.40
73939;DHT22;62291;47.554;8.504;2023-06-22T12:28:25;29.00;99.20
73939;DHT22;62291;47.554;8.504;2023-06-22T12:30:51;28.80;99.30
73939;DHT22;62291;47.554;8.504;2023-06-22T12:33:16;28.60;99.90
73939;DHT22;62291;47.554;8.504;2023-06-22T12:35:43;28.70;99.90
73939;DHT22;62291;47.554;8.504;2023-06-22T12:38:10;28.80;99.90
73939;DHT22;62291;47.554;8.504;2023-06-22T12:40:36;28.90;99.90
73939;DHT22;62291;47.554;8.504;2023-06-22T12:43:02;28.80;99.90
73939;DHT22;62291;47.554;8.504;2023-06-22T12:45:27;28.80;99.90
73939;DHT22;62291;47.554;8.504;2023-06-22T12:47:57;28.70;99.90
73939;DHT22;62291;47.554;8.504;2023-06-22T12:50:22;28.70;99.90
73939;DHT22;62291;47.554;8.504;2023-06-22T12:52:48;28.80;99.90
73939;DHT22;62291;47.554;8.504;2023-06-22T12:55:14;29.10;99.90
73939;DHT22;62291;47.554;8.504;2023-06-22T12:57:39;29.10;99.90
73939;DHT22;62291;47.554;8.504;2023-06-22T13:00:06;29.20;99.90
73939;DHT22;62291;47.554;8.504;2023-06-22T13:02:33;29.20;99.60
73939;DHT22;62291;47.554;8.504;2023-06-22T13:04:59;29.20;98.50
73939;DHT22;62291;47.554;8.504;2023-06-22T13:07:24;29.20;98.70
73939;DHT22;62291;47.554;8.504;2023-06-22T13:09:50;29.50;98.70
73939;DHT22;62291;47.554;8.504;2023-06-22T13:12:22;29.80;97.70
73939;DHT22;62291;47.554;8.504;2023-06-22T13:14:48;30.10;96.60
73939;DHT22;62291;47.554;8.504;2023-06-22T13:17:14;30.60;96.40
73939;DHT22;62291;47.554;8.504;2023-06-22T13:19:40;31.10;95.10
73939;DHT22;62291;47.554;8.504;2023-06-22T13:24:51;31.40;94.60
73939;DHT22;62291;47.554;8.504;2023-06-22T13:27:16;31.40;94.90
73939;DHT22;62291;47.554;8.504;2023-06-22T13:29:42;31.40;94.00
73939;DHT22;62291;47.554;8.504;2023-06-22T13:32:08;31.40;93.20
73939;DHT22;62291;47.554;8.504;2023-06-22T13:34:33;31.20;93.50
73939;DHT22;62291;47.554;8.504;2023-06-22T13:36:59;31.20;94.10
73939;DHT22;62291;47.554;8.504;2023-06-22T13:39:24;31.10;95.60
73939;DHT22;62291;47.554;8.504;2023-06-22T13:41:50;31.10;96.20
73939;DHT22;62291;47.554;8.504;2023-06-22T13:44:16;31.00;95.00
73939;DHT22;62291;47.554;8.504;2023-06-22T13:46:42;31.00;94.40
73939;DHT22;62291;47.554;8.504;2023-06-22T13:49:07;31.10;94.90
73939;DHT22;62291;47.554;8.504;2023-06-22T13:51:33;31.20;94.80
73939;DHT22;62291;47.554;8.504;2023-06-22T13:53:59;31.30;94.20
73939;DHT22;62291;47.554;8.504;2023-06-22T13:56:24;31.40;93.80
73939;DHT22;62291;47.554;8.504;2023-06-22T13:58:50;31.10;92.20
73939;DHT22;62291;47.554;8.504;2023-06-22T14:01:16;31.00;92.10
73939;DHT22;62291;47.554;8.504;2023-06-22T14:03:41;30.90;91.20
73939;DHT22;62291;47.554;8.504;2023-06-22T14:06:07;30.60;92.70
73939;DHT22;62291;47.554;8.504;2023-06-22T14:08:37;30.40;93.00
73939;DHT22;62291;47.554;8.504;2023-06-22T14:11:03;30.30;94.20
73939;DHT22;62291;47.554;8.504;2023-06-22T14:13:28;30.10;93.30
73939;DHT22;62291;47.554;8.504;2023-06-22T14:15:54;29.70;93.20
73939;DHT22;62291;47.554;8.504;2023-06-22T14:18:20;29.50;93.40
73939;DHT22;62291;47.554;8.504;2023-06-22T14:20:48;29.20;94.20
73939;DHT22;62291;47.554;8.504;2023-06-22T14:23:13;28.90;94.50
73939;DHT22;62291;47.554;8.504;2023-06-22T14:25:39;28.70;95.70
73939;DHT22;62291;47.554;8.504;2023-06-22T14:28:05;28.50;98.60
73939;DHT22;62291;47.554;8.504;2023-06-22T14:30:31;28.00;97.20
73939;DHT22;62291;47.554;8.504;2023-06-22T14:32:56;27.60;96.90
73939;DHT22;62291;47.554;8.504;2023-06-22T14:35:22;27.40;97.70
73939;DHT22;62291;47.554;8.504;2023-06-22T14:37:49;27.30;97.30
73939;DHT22;62291;47.554;8.504;2023-06-22T14:40:15;27.20;98.60
73939;DHT22;62291;47.554;8.504;2023-06-22T14:42:41;27.00;99.10
73939;DHT22;62291;47.554;8.504;2023-06-22T14:45:07;26.90;98.50
73939;DHT22;62291;47.554;8.504;2023-06-22T14:47:33;26.70;99.90
73939;DHT22;62291;47.554;8.504;2023-06-22T14:49:58;26.60;99.90
73939;DHT22;62291;47.554;8.504;2023-06-22T14:52:26;26.50;99.90
73939;DHT22;62291;47.554;8.504;2023-06-22T14:54:52;26.30;99.90
73939;DHT22;62291;47.554;8.504;2023-06-22T14:57:18;26.40;99.90
73939;DHT22;62291;47.554;8.504;2023-06-22T14:59:46;26.70;99.90
73939;DHT22;62291;47.554;8.504;2023-06-22T15:02:12;27.00;99.90
73939;DHT22;62291;47.554;8.504;2023-06-22T15:04:38;27.30;99.90
73939;DHT22;62291;47.554;8.504;2023-06-22T15:07:04;27.60;99.90
73939;DHT22;62291;47.554;8.504;2023-06-22T15:09:30;27.90;99.90
73939;DHT22;62291;47.554;8.504;2023-06-22T15:11:56;28.10;99.90
73939;DHT22;62291;47.554;8.504;2023-06-22T15:14:23;28.10;99.90
73939;DHT22;62291;47.554;8.504;2023-06-22T15:16:49;28.30;99.90
73939;DHT22;62291;47.554;8.504;2023-06-22T15:19:14;28.40;99.90
73939;DHT22;62291;47.554;8.504;2023-06-22T15:21:40;28.50;99.90
73939;DHT22;62291;47.554;8.504;2023-06-22T15:24:06;28.50;99.90
73939;DHT22;62291;47.554;8.504;2023-06-22T15:26:31;28.60;99.50
73939;DHT22;62291;47.554;8.504;2023-06-22T15:28:57;28.50;99.90
73939;DHT22;62291;47.554;8.504;2023-06-22T15:31:23;28.40;99.90